PDT,Max TemperatureF,Mean TemperatureF,Min TemperatureF,Max Dew PointF,MeanDew PointF,Min DewpointF,Max Humidity, Mean Humidity, Min Humidity, Max Sea Level PressureIn, Mean Sea Level PressureIn, Min Sea Level PressureIn, Max VisibilityMiles, Mean VisibilityMiles, Min VisibilityMiles, Max Wind SpeedMPH, Mean Wind SpeedMPH, Max Gust SpeedMPH,PrecipitationIn, CloudCover, Events, WindDirDegrees
2012-7-1,85,73,61,59,57,55,90,64,37,29.93,29.88,29.81,10,10,10,14,7,20,0.00,2,,204
2012-7-2,92,76,59,60,56,51,87,59,30,29.85,29.81,29.76,10,10,10,18,7,25,0.00,0,,200
2012-7-3,92,74,56,54,51,46,86,54,21,29.88,29.81,29.74,10,10,10,10,5,33,0.00,0,,206
2012-7-4,92,76,60,57,52,49,72,49,26,29.81,29.78,29.74,10,10,10,17,6,22,0.00,0,,201
2012-7-5,84,70,55,51,50,47,83,57,31,29.93,29.89,29.82,10,10,10,16,10,26,0.00,0,,199
2012-7-6,92,73,54,52,49,43,83,51,18,29.99,29.94,29.90,10,10,10,8,6,15,0.00,0,,209
2012-7-7,98,79,59,51,47,38,72,44,16,29.96,29.91,29.85,10,10,10,12,4,15,0.00,0,,227
2012-7-8,95,77,58,55,50,45,67,44,20,29.95,29.91,29.88,10,10,10,14,6,31,0.00,0,,203
2012-7-9,96,77,57,52,49,42,77,47,16,29.99,29.94,29.88,10,10,10,12,6,15,0.00,0,,206
2012-7-10,101,78,54,52,48,34,83,47,10,29.93,29.85,29.76,10,10,7,10,2,37,0.00,0,,251
2012-7-11,106,83,59,53,47,31,69,39,8,29.85,29.79,29.73,10,10,10,10,2,15,0.00,0,,280
2012-7-12,102,83,64,57,53,49,63,40,16,29.79,29.75,29.70,10,10,10,10,3,14,0.00,0,,202
2012-7-13,83,72,60,53,51,49,69,52,34,29.86,29.81,29.76,10,10,10,18,9,24,0.00,0,,198
2012-7-14,85,70,54,55,53,50,89,62,34,29.93,29.86,29.81,10,10,10,16,9,32,0.00,1,,209
2012-7-15,94,75,55,57,54,51,86,56,26,29.88,29.81,29.73,10,10,10,15,4,20,0.00,0,,200
2012-7-16,74,65,56,52,51,48,86,65,44,29.86,29.82,29.77,10,10,10,26,11,33,0.00,0,,209
2012-7-17,74,66,58,52,51,50,80,62,44,29.99,29.93,29.88,10,10,10,23,9,51,0.00,5,,210
2012-7-18,84,70,55,53,51,48,77,56,34,29.99,29.96,29.91,10,10,10,13,4,23,0.00,0,,213
2012-7-19,85,72,58,54,51,44,80,54,27,30.02,29.97,29.94,10,10,10,15,5,79,T,1,,205
2012-7-20,94,76,57,56,51,35,86,52,17,30.06,29.99,29.92,10,10,10,14,6,23,0.00,0,,277
2012-7-21,101,81,60,57,52,44,84,50,15,29.96,29.89,29.81,10,10,10,10,3,17,0.00,0,,245
2012-7-22,101,82,62,57,53,49,72,45,17,29.86,29.81,29.75,10,10,10,12,3,20,0.00,0,,217
2012-7-23,89,75,61,55,52,45,72,49,25,29.88,29.84,29.80,10,10,7,16,8,23,0.03,0,Rain-Thunderstorm,204
2012-7-24,90,74,57,54,50,39,80,49,17,29.94,29.89,29.84,10,10,10,14,7,24,0.00,0,,197
2012-7-25,90,74,57,52,49,42,77,50,23,29.96,29.91,29.85,10,10,10,16,7,104,0.00,0,,201
2012-7-26,85,70,55,53,50,47,86,57,27,29.94,29.90,29.85,10,10,10,17,8,32,0.00,0,,203
2012-7-27,86,70,54,53,51,47,89,60,31,29.98,29.93,29.89,10,10,10,12,9,16,0.00,0,,205
2012-7-28,91,74,56,55,52,49,80,52,24,30.01,29.96,29.91,10,10,10,28,6,87,0.00,0,,205
2012-7-29,92,75,57,55,52,46,80,52,23,30.00,29.94,29.88,10,10,10,56,5,75,0.00,0,,199
2012-7-30,98,78,58,55,51,42,80,48,16,29.96,29.90,29.81,10,10,10,10,3,21,0.00,0,,225
2012-7-31,98,82,65,58,51,44,59,38,16,29.94,29.90,29.86,10,10,10,10,4,20,0.00,0,,207